Nearby METAR Reports

 

KEDC - Austin Exec, Texas, USA
Distance from station: SW 16mi, 25km
Updated: Sat, 08-Aug-2020 5:55pm CDT
Mostly cloudy
Mostly cloudy
 Wind from SE
Wind: SE 8 mph , 13 km/h
Temperature: 99°F , 37°C
Dew Point: 63°F , 17°C
Humidity: 31%
Barometer: 30.02 inHg , 1016.6 hPa
Clouds: Mostly cloudy
Visibility: 10 miles , 16 km
Cloud details: Mostly cloudy 8000 ft
2020/08/08 22:55 KEDC 082255Z AUTO 13007KT 10SM BKN080 37/17 A3002 RMK AO2
KGTU - Georgetown, Texas, USA
Distance from station: WNW 17mi, 28km
Updated: Sat, 08-Aug-2020 5:56pm CDT
Partly cloudy
Partly cloudy
 Wind from SSE
Wind: SSE 12 mph , 19 km/h, Gust: 16 mph , 26 km/h
Temperature: 99°F , 37°C
Dew Point: 64°F , 18°C
Humidity: 33%
Barometer: 30.04 inHg , 1017.3 hPa
Clouds: Partly cloudy
Visibility: 10 miles , 16 km
Cloud details: Few Clouds 8000 ft
Partly cloudy 9500 ft
2020/08/08 22:56 KGTU 082256Z 16010G14KT 10SM FEW080 SCT095 37/18 A3004 RMK AO2 SLP161 T03670178
 
KATT - Austin/Mabry, Texas, USA
Distance from station: SW 28mi, 45km
Updated: Sat, 08-Aug-2020 5:51pm CDT
Partly cloudy
Partly cloudy
 Wind from varies
Wind: varies 5 mph , 7 km/h
Temperature: 100°F , 38°C
Dew Point: 63°F , 17°C
Humidity: 29%
Barometer: 30.02 inHg , 1016.6 hPa
Clouds: Partly cloudy
Visibility: 10 miles , 16 km
Cloud details: Partly cloudy 7500 ft
2020/08/08 22:51 KATT 082251Z AUTO VRB04KT 10SM SCT075 38/17 A3002 RMK AO2 SLP147 T03830167 $
KAUS - Austin, Texas, USA
Distance from station: SSW 32mi, 51km
Updated: Sat, 08-Aug-2020 5:53pm CDT
Partly cloudy
Partly cloudy
 Wind from SSE
Wind: SSE 14 mph , 22 km/h, Gust: 22 mph , 35 km/h
Temperature: 99°F , 37°C
Dew Point: 70°F , 21°C
Humidity: 39%
Barometer: 30.00 inHg , 1015.9 hPa
Clouds: Partly cloudy
Visibility: 10 miles , 16 km
Cloud details: Partly cloudy 6500 ft
Partly cloudy 9000 ft
Partly cloudy 25000 ft
2020/08/08 22:53 KAUS 082253Z 16012G19KT 10SM SCT065TCU SCT090 SCT250 37/21 A3000 RMK AO2 SLP146 TCU NE T03720211
 
KRYW - Lago Vista, Texas, USA
Distance from station: W 33mi, 54km
Updated: Sat, 08-Aug-2020 5:55pm CDT
Clear
Clear
 Wind from ESE
Wind: ESE 8 mph , 13 km/h
Temperature: 97°F , 36°C
Dew Point: 63°F , 17°C
Humidity: 32%
Barometer: 30.05 inHg , 1017.6 hPa
Clouds: Clear
Visibility: 10 miles , 16 km
2020/08/08 22:55 KRYW 082255Z AUTO 12007KT 110V170 10SM CLR 36/17 A3005 RMK AO2 T03580173
KILE - Killeen Muni, Texas, USA
Distance from station: NNW 37mi, 59km
Updated: Sat, 08-Aug-2020 5:56pm CDT

 Wind from SE
Wind: SE 10 mph , 17 km/h
Temperature: 99°F , 37°C
Dew Point: 64°F , 18°C
Humidity: 33%
Barometer: 30.02 inHg , 1016.6 hPa
Visibility: 10 miles , 16 km
2020/08/08 22:56 KILE 082256Z AUTO 14009KT 10SM 37/18 A3002 RMK AO2 SLP151 T03670183 $
 
KTPL - Temple/Miller, Texas, USA
Distance from station: N 38mi, 61km
Updated: Sat, 08-Aug-2020 5:51pm CDT
Few Clouds
Few Clouds
 Wind from SSE
Wind: SSE 10 mph , 17 km/h
Temperature: 99°F , 37°C
Dew Point: 64°F , 18°C
Humidity: 33%
Barometer: 30.02 inHg , 1016.6 hPa
Clouds: Few Clouds
Visibility: 10 miles , 16 km
Cloud details: Few Clouds 7500 ft
2020/08/08 22:51 KTPL 082251Z AUTO 15009KT 10SM FEW075 37/18 A3002 RMK AO2 SLP153 T03670183
KGYB - Giddings-Lee, Texas, USA
Distance from station: SE 39mi, 62km
Updated: Sat, 08-Aug-2020 5:55pm CDT
Partly cloudy
Partly cloudy
 Wind from SE
Wind: SE 7 mph , 11 km/h
Temperature: 97°F , 36°C
Heat Index: 104°F , 40°C
Dew Point: 70°F , 21°C
Humidity: 42%
Barometer: 30.04 inHg , 1017.3 hPa
Clouds: Partly cloudy
Visibility: 10 miles , 16 km
Cloud details: Partly cloudy 7000 ft
Partly cloudy 8500 ft
2020/08/08 22:55 KGYB 082255Z AUTO 14006KT 10SM SCT070 SCT085 36/21 A3004 RMK AO2 T03620211
 
KGRK - Gray/Ft Hood, Texas, USA
Distance from station: NW 42mi, 67km
Updated: Sat, 08-Aug-2020 5:58pm CDT
Clear
Clear
 Wind from SSE
Wind: SSE 12 mph , 19 km/h
Temperature: 97°F , 36°C
Dew Point: 59°F , 15°C
Humidity: 28%
Barometer: 30.02 inHg , 1016.6 hPa
Clouds: Clear
Visibility: 10 miles , 16 km
2020/08/08 22:58 KGRK 082258Z AUTO 15010KT 10SM CLR 36/15 A3002 RMK AO2 SLP153 T03640146
KHLR - Ft Hood/Killeen, Texas, USA
Distance from station: NNW 42mi, 67km
Updated: Sat, 08-Aug-2020 5:58pm CDT
Few Clouds
Few Clouds
 Wind from S
Wind: S 8 mph , 13 km/h
Temperature: 99°F , 37°C
Dew Point: 61°F , 16°C
Humidity: 29%
Barometer: 30.02 inHg , 1016.6 hPa
Clouds: Few Clouds
Visibility: 10 miles , 16 km
Cloud details: Few Clouds 8000 ft
2020/08/08 22:58 KHLR 082258Z AUTO 19007KT 10SM FEW080 37/16 A3002 RMK AO2 SLP152 T03660162
 
KRWV - Caldwell, Texas, USA
Distance from station: E 43mi, 69km
Updated: Sat, 08-Aug-2020 5:50pm CDT
Clear
Clear
 Wind from SSE
Wind: SSE 10 mph , 17 km/h
Temperature: 95°F , 35°C
Heat Index: 100°F , 38°C
Dew Point: 68°F , 20°C
Humidity: 41%
Barometer: 30.03 inHg , 1016.9 hPa
Clouds: Clear
Visibility: 10 miles , 16 km
2020/08/08 22:50 KRWV 082250Z AUTO 15009KT 10SM CLR 35/20 A3003 RMK AO2 T03540201
KBMQ - Burnet, Texas, USA
Distance from station: WNW 50mi, 80km
Updated: Sat, 08-Aug-2020 5:53pm CDT
Few Clouds
Few Clouds
 Wind from SSE
Wind: SSE 8 mph , 13 km/h, Gust: 21 mph , 33 km/h
Temperature: 93°F , 34°C
Dew Point: 59°F , 15°C
Humidity: 32%
Barometer: 30.06 inHg , 1017.9 hPa
Clouds: Few Clouds
Visibility: 10 miles , 16 km
Cloud details: Few Clouds 7500 ft
2020/08/08 22:53 KBMQ 082253Z AUTO 15007G18KT 10SM FEW075 34/15 A3006 RMK AO2 SLP158 T03440150